createdAt,value
2022-10-10T00:22:57.979Z,3.25
2022-10-10T00:53:02.923Z,4.32
2022-10-10T01:23:42.792Z,4.63
2022-10-10T02:55:02.379Z,5.50
2022-10-10T03:25:07.229Z,3.53
2022-10-10T03:55:11.498Z,5.38
2022-10-10T04:25:15.596Z,6.05
2022-10-10T04:55:20.092Z,4.05
2022-10-10T05:25:24.185Z,4.85
2022-10-10T05:55:28.674Z,7.25
2022-10-10T06:25:40.455Z,7.10
2022-10-10T06:55:48.183Z,6.68
2022-10-10T07:25:52.984Z,10.95
2022-10-10T07:55:57.272Z,6.57
2022-10-10T08:26:02.074Z,7.03
2022-10-10T08:56:07.992Z,5.88
2022-10-10T09:26:14.409Z,7.63
2022-10-10T09:56:20.958Z,7.00
2022-10-10T10:26:28.392Z,5.43
2022-10-10T10:56:37.063Z,7.60
2022-10-10T11:26:45.027Z,9.65
2022-10-10T11:56:50.591Z,7.55
2022-10-10T12:57:33.614Z,8.48
2022-10-10T13:27:40.286Z,7.18
2022-10-10T13:57:44.438Z,18.23
2022-10-10T14:27:48.943Z,14.68
2022-10-10T14:57:54.180Z,13.45
2022-10-10T15:27:58.416Z,12.65
2022-10-10T15:58:03.989Z,10.85
2022-10-10T16:28:08.227Z,16.52
2022-10-10T16:58:12.486Z,10.20
2022-10-10T17:28:17.494Z,12.45
2022-10-10T17:58:21.714Z,10.48
2022-10-10T19:28:35.361Z,13.27
2022-10-10T19:58:39.965Z,13.23
2022-10-10T20:28:44.475Z,14.20
2022-10-10T20:58:48.858Z,13.50
2022-10-10T21:32:26.416Z,16.17
2022-10-10T22:02:30.522Z,20.48
2022-10-10T22:32:35.248Z,25.83
2022-10-10T23:02:39.398Z,14.25
2022-10-10T23:32:43.551Z,6.60
